< < Back
Terminal Aerodrome Forecast


Current Version              Previous Versions:   1  2  3  4  5  6  7  8  9  

Terminal Aerodrome Forecast

450
FTUS42 KCAE 131438 AAA
TAFAGS
TAF AMD
KAGS 131438Z 1315/1412 34010KT P6SM SKC
     FM140000 01005KT P6SM SCT250=

Latest METAR

006
SAUS70 KWBC 131700 RRX
MTRAGS
METAR KAGS 132053Z 36008KT 10SM CLR 11/M10 A3025 RMK AO2 SLP245
T01061100 56016


USA.gov is the U.S. government's official web portal to all federal, state and local government web resources and services.